Greenland, MI (49929)

4:08 PM EST on February 10, 2016 (GMT -0500)
MesoWest | | Change Station
CLOSE
Current Station
Personal Weather Station
Location: Rockland, MI
Elevation: 1026 ft
Nearby Weather Stations
Active Advisory: Lake Effect Snow Advisory Active Notice: Local Storm Report

Elev 1026 ft 46.72 °N, 89.15 °W | Updated 38 minutes ago

Overcast
Overcast
7 °F
Feels Like -4 °F
N
6
Wind Variable Wind from NNW
Gusts 11.0 mph

Today
High -- | Low -- °F
--% Chance of Precip.
Yesterday
High -- | Low -- °F
Precip. -- in
Pressure 30.01 in
Visibility 3.0 miles
Clouds Mostly Cloudy 1800 ft
Overcast 2500 ft
Windchill -4 °F
Dew Point 1 °F
Humidity 73%
Rainfall in
Snow Depth Not available.
8:08 AM 6:12 PM
Waxing Crescent, 7% visible
SPECI KCMX 102103Z AUTO 35008KT 3SM -SN BKN018 OVC025 M14/M18 A3001 RMK AO2 P0000 T11391178 TSNO
Pressure 30.01 in
Visibility 3.0 miles
Clouds Mostly Cloudy 1800 ft
Overcast 2500 ft
Windchill -4 °F
Dew Point 1 °F
Humidity 73%
Rainfall in
Snow Depth Not available.
8:08 AM 6:12 PM
Waxing Crescent, 7% visible
SPECI KCMX 102103Z AUTO 35008KT 3SM -SN BKN018 OVC025 M14/M18 A3001 RMK AO2 P0000 T11391178 TSNO

10-Day Weather Forecast

Almanac

Astronomy

Feb. 10, 2016 Rise Set
Actual Time
Civil Twilight
Nautical Twilight
Astronomical Twilight
Moon
Length of Visible Light
Length of Day
Tomorrow will be .
, % of the Moon is Illuminated

Today's Extremes

State Highs State Lows

Community

WunderPhotos

Upload Photos

1,891,947 photos uploaded!

WunderBlog® & News

Nearby

Air Quality

  Air Quality AQ Index Pollutant
Not available.

Snow Depth

Station Depth Elevation

Earthquake Activity

City Distance Mag. Time & Date
Minimum magnitude displayed is 2.5.

Coastal Water Temperatures

Place Temperature

Stations

Nearby Weather Stations

Station Location Temp. Windchill Dew Point Humidity Wind Precip. Elev Updated Type
                   

Watches & Warnings

Lake Effect Snow Advisory
Issued: 2:08 PM CST Feb. 10, 2016 – National Weather Service

... Lake effect Snow Advisory remains in effect until 7 PM EST
/6 PM CST/ this evening...

Hazardous weather...

* light to moderate snow showers will continue through this
   afternoon before diminishing by this evening.

* Expect additional snow accumulations of an inch or two from
   Ironwood and Wakefield to Bergland... White Pine and Mass City
   through this afternoon. Farther inland... an additional inch will
   accumulate from Watersmeet and Marenisco to Bruce Crossing.

* Expect some areas of blowing snow and sharply reduced
   visibility through this afternoon near Lake Superior.

Impacts...

* roads will be snow covered and slippery.

Precautionary/preparedness actions...

* a lake effect Snow Advisory Means Lake effect snow is
   forecast that will make travel difficult in some areas.

* Prepare... plan... and stay informed. Visit www.Weather.Gov/MQT